createdAt,value
2023-09-04T00:00:44.580Z,2.23
2023-09-04T00:06:46.491Z,2.10
2023-09-04T00:12:48.420Z,4.20
2023-09-04T00:18:50.435Z,3.53
2023-09-04T00:24:52.383Z,2.60
2023-09-04T00:30:55.361Z,2.60
2023-09-04T00:36:57.281Z,2.83
2023-09-04T00:42:59.238Z,2.33
2023-09-04T00:49:01.231Z,2.30
2023-09-04T00:55:06.243Z,2.80
2023-09-04T01:01:08.368Z,2.70
2023-09-04T01:07:10.315Z,2.33
2023-09-04T01:13:34.618Z,2.90
2023-09-04T01:19:40.401Z,3.00
2023-09-04T01:25:53.616Z,2.37
2023-09-04T01:32:02.549Z,2.40
2023-09-04T01:38:05.570Z,2.43
2023-09-04T01:44:08.114Z,3.20
2023-09-04T01:50:10.563Z,2.90
2023-09-04T01:56:12.609Z,2.97
2023-09-04T02:02:14.529Z,3.50
2023-09-04T02:08:16.707Z,2.70
2023-09-04T02:14:18.658Z,3.10
2023-09-04T02:20:20.581Z,3.17
2023-09-04T02:26:22.601Z,3.90
2023-09-04T02:32:24.559Z,3.33
2023-09-04T02:38:26.522Z,2.93
2023-09-04T02:44:30.391Z,2.90
2023-09-04T02:50:32.327Z,2.80
2023-09-04T02:56:34.277Z,2.70
2023-09-04T03:02:36.936Z,2.70
2023-09-04T03:08:42.015Z,3.43
2023-09-04T03:14:44.035Z,3.10
2023-09-04T03:20:46.067Z,2.73
2023-09-04T03:26:47.987Z,3.20
2023-09-04T03:32:50.541Z,2.80
2023-09-04T03:38:52.752Z,3.50
2023-09-04T03:44:54.698Z,3.10
2023-09-04T03:51:00.920Z,2.70
2023-09-04T03:57:03.366Z,2.77
2023-09-04T04:03:05.555Z,3.00
2023-09-04T04:09:08.182Z,3.90
2023-09-04T04:15:11.218Z,3.30
2023-09-04T04:21:13.699Z,3.20
2023-09-04T04:27:18.811Z,3.17
2023-09-04T04:33:20.817Z,3.63
2023-09-04T04:39:22.859Z,2.80
2023-09-04T04:45:25.071Z,3.47
2023-09-04T04:51:27.009Z,2.90
2023-09-04T04:57:29.323Z,3.20
2023-09-04T05:03:31.318Z,2.80
2023-09-04T05:09:33.248Z,3.30
2023-09-04T05:15:35.256Z,3.40
2023-09-04T05:21:50.313Z,2.97
2023-09-04T05:27:57.776Z,3.57
2023-09-04T05:33:59.775Z,3.40
2023-09-04T05:40:01.799Z,3.10
2023-09-04T05:46:03.954Z,3.20
2023-09-04T05:52:06.348Z,3.27
2023-09-04T05:58:08.290Z,2.03
2023-09-04T06:04:12.235Z,2.20
2023-09-04T06:10:14.358Z,2.07
2023-09-04T06:16:22.670Z,2.43
2023-09-04T06:22:24.627Z,2.60
2023-09-04T06:28:27.584Z,2.30
2023-09-04T06:34:29.855Z,2.60
2023-09-04T06:40:31.853Z,2.40
2023-09-04T06:46:34.361Z,2.20
2023-09-04T06:52:36.891Z,1.97
2023-09-04T06:58:38.860Z,1.73
2023-09-04T07:04:40.864Z,1.77
2023-09-04T07:10:43.791Z,2.03
2023-09-04T07:16:57.717Z,1.87
2023-09-04T07:23:19.025Z,1.90
2023-09-04T07:29:23.186Z,2.03
2023-09-04T07:35:25.130Z,2.30
2023-09-04T07:41:27.111Z,2.00
2023-09-04T07:47:29.115Z,2.00
2023-09-04T07:53:31.058Z,1.90
2023-09-04T07:59:33.045Z,2.07
2023-09-04T08:05:35.482Z,2.30
2023-09-04T08:11:37.495Z,2.10
2023-09-04T08:17:42.286Z,1.83
2023-09-04T08:23:44.465Z,2.37
2023-09-04T08:29:46.546Z,3.30
2023-09-04T08:35:48.592Z,2.03
2023-09-04T08:41:51.596Z,2.00
2023-09-04T08:47:56.164Z,2.30
2023-09-04T08:54:00.986Z,2.03
2023-09-04T09:00:04.445Z,2.33
2023-09-04T09:06:06.529Z,2.30
2023-09-04T09:12:08.582Z,1.97
2023-09-04T09:18:10.562Z,1.90
2023-09-04T09:24:20.308Z,2.10
2023-09-04T09:30:22.328Z,1.60
2023-09-04T09:36:25.847Z,1.47
2023-09-04T09:42:27.828Z,1.70
2023-09-04T09:48:32.205Z,1.70
2023-09-04T09:54:39.267Z,1.87
2023-09-04T10:00:42.406Z,1.83
2023-09-04T10:06:46.024Z,1.77
2023-09-04T10:12:53.203Z,1.60
2023-09-04T10:18:58.037Z,1.87
2023-09-04T10:25:20.632Z,1.80
2023-09-04T10:31:25.575Z,1.57
2023-09-04T10:37:30.507Z,1.90
2023-09-04T10:43:43.044Z,1.80
2023-09-04T10:49:46.223Z,1.50
2023-09-04T10:56:11.837Z,1.97
2023-09-04T11:02:35.473Z,1.57
2023-09-04T11:08:48.907Z,1.80
2023-09-04T11:14:57.251Z,2.00
2023-09-04T11:21:01.513Z,1.70
2023-09-04T11:27:04.607Z,1.90
2023-09-04T11:33:06.639Z,2.10
2023-09-04T11:39:13.967Z,2.00
2023-09-04T11:45:16.169Z,1.87
2023-09-04T11:51:18.176Z,1.63
2023-09-04T11:57:20.420Z,2.37
2023-09-04T12:03:22.410Z,1.97
2023-09-04T12:09:24.692Z,1.67
2023-09-04T12:15:28.588Z,1.47
2023-09-04T12:21:30.552Z,1.97
2023-09-04T12:27:35.121Z,1.73
2023-09-04T12:33:44.275Z,1.70
2023-09-04T12:39:46.360Z,1.50
2023-09-04T12:45:48.428Z,1.90
2023-09-04T12:51:50.495Z,2.10
2023-09-04T12:58:01.404Z,1.57
2023-09-04T13:04:04.444Z,1.37
2023-09-04T13:10:07.253Z,1.80
2023-09-04T13:16:09.512Z,1.43
2023-09-04T13:22:11.494Z,1.50
2023-09-04T13:28:13.450Z,1.60
2023-09-04T13:34:15.396Z,1.67
2023-09-04T13:40:17.446Z,1.30
2023-09-04T13:46:19.531Z,1.37
2023-09-04T13:52:23.882Z,1.80
2023-09-04T13:58:26.715Z,1.33
2023-09-04T14:04:28.654Z,1.40
2023-09-04T14:10:31.031Z,1.60
2023-09-04T14:16:33.138Z,1.60
2023-09-04T14:22:35.138Z,1.50
2023-09-04T14:28:37.084Z,1.60
2023-09-04T14:34:39.043Z,1.60
2023-09-04T14:40:45.939Z,1.80
2023-09-04T14:46:48.085Z,1.77
2023-09-04T14:52:52.825Z,1.70
2023-09-04T14:58:55.783Z,1.67
2023-09-04T15:04:57.732Z,1.77
2023-09-04T15:10:59.701Z,1.80
2023-09-04T15:17:01.656Z,1.80
2023-09-04T15:23:04.034Z,1.90
2023-09-04T15:29:06.030Z,2.17
2023-09-04T15:35:08.371Z,1.87
2023-09-04T15:41:10.360Z,1.57
2023-09-04T15:47:14.161Z,2.00
2023-09-04T15:53:16.653Z,5.07
2023-09-04T15:59:18.560Z,2.30
2023-09-04T16:05:20.534Z,1.93
2023-09-04T16:11:22.633Z,1.80
2023-09-04T16:17:24.712Z,2.17
2023-09-04T16:23:26.773Z,1.80
2023-09-04T16:29:28.752Z,1.50
2023-09-04T16:35:30.738Z,1.87
2023-09-04T16:41:32.683Z,1.93
2023-09-04T16:47:34.656Z,1.70
2023-09-04T16:53:36.665Z,1.30
2023-09-04T16:59:38.614Z,1.93
2023-09-04T17:05:40.575Z,1.67
2023-09-04T17:11:42.631Z,1.77
2023-09-04T17:17:45.109Z,2.07
2023-09-04T17:23:47.050Z,2.60
2023-09-04T17:29:49.021Z,2.10
2023-09-04T17:35:50.982Z,1.97
2023-09-04T17:41:54.254Z,2.10
2023-09-04T17:47:56.322Z,2.70
2023-09-04T17:53:58.345Z,1.63
2023-09-04T18:00:00.303Z,2.00
2023-09-04T18:06:02.249Z,2.40
2023-09-04T18:12:04.774Z,3.67
2023-09-04T18:18:06.812Z,2.03
2023-09-04T18:24:08.963Z,2.40
2023-09-04T18:30:13.580Z,3.70
2023-09-04T18:36:16.710Z,2.80
2023-09-04T18:42:18.697Z,2.60
2023-09-04T18:48:20.623Z,2.40
2023-09-04T18:54:22.619Z,3.70
2023-09-04T19:00:24.789Z,2.60
2023-09-04T19:06:26.798Z,2.73
2023-09-04T19:12:28.772Z,2.07
2023-09-04T19:18:30.767Z,2.70
2023-09-04T19:24:32.801Z,2.87
2023-09-04T19:30:34.877Z,2.70
2023-09-04T19:36:36.909Z,3.77
2023-09-04T19:42:38.856Z,3.40
2023-09-04T19:48:40.791Z,2.40
2023-09-04T19:54:42.753Z,2.80
2023-09-04T20:00:45.142Z,3.23
2023-09-04T20:06:47.093Z,2.57
2023-09-04T20:12:49.493Z,3.00
2023-09-04T20:18:51.455Z,2.80
2023-09-04T20:24:54.164Z,2.67
2023-09-04T20:30:57.215Z,2.30
2023-09-04T20:37:03.088Z,2.77
2023-09-04T20:43:05.126Z,2.73
2023-09-04T20:49:07.069Z,2.80
2023-09-04T20:55:09.245Z,2.73
2023-09-04T21:01:11.271Z,3.20
2023-09-04T21:07:13.181Z,2.87
2023-09-04T21:13:33.380Z,3.47
2023-09-04T21:19:53.947Z,3.00
2023-09-04T21:26:15.309Z,3.40
2023-09-04T21:32:36.068Z,3.50
2023-09-04T21:38:56.545Z,3.37
2023-09-04T21:45:17.054Z,3.63
2023-09-04T21:51:37.254Z,3.10
2023-09-04T21:57:58.004Z,3.03
2023-09-04T22:04:18.771Z,3.10
2023-09-04T22:10:39.248Z,3.17
2023-09-04T22:17:02.215Z,3.37
2023-09-04T22:23:23.422Z,3.47
2023-09-04T22:29:44.360Z,4.27
2023-09-04T22:36:05.002Z,3.13
2023-09-04T22:42:25.515Z,3.40
2023-09-04T22:48:45.745Z,4.47
2023-09-04T22:55:06.165Z,3.40
2023-09-04T23:01:31.205Z,4.33
2023-09-04T23:07:52.092Z,3.67
2023-09-04T23:14:12.750Z,3.30
2023-09-04T23:20:33.222Z,3.77
2023-09-04T23:26:46.421Z,3.53
2023-09-04T23:33:07.002Z,3.30
2023-09-04T23:39:10.388Z,3.23
2023-09-04T23:45:13.124Z,4.10
2023-09-04T23:51:15.026Z,3.20
2023-09-04T23:57:16.936Z,3.57
